sensor_id;sensor_type;location;lat;lon;timestamp;temperature;humidity
44170;DHT22;29836;52.286;9.576;2023-08-24T00:01:23;16.30;99.90
44170;DHT22;29836;52.286;9.576;2023-08-24T00:03:48;16.20;99.90
44170;DHT22;29836;52.286;9.576;2023-08-24T00:06:14;16.20;99.90
44170;DHT22;29836;52.286;9.576;2023-08-24T00:08:40;16.10;99.90
44170;DHT22;29836;52.286;9.576;2023-08-24T00:11:05;16.00;99.90
44170;DHT22;29836;52.286;9.576;2023-08-24T00:13:31;15.90;99.90
44170;DHT22;29836;52.286;9.576;2023-08-24T00:15:57;15.80;99.90
44170;DHT22;29836;52.286;9.576;2023-08-24T00:18:23;15.80;99.90
44170;DHT22;29836;52.286;9.576;2023-08-24T00:20:49;15.80;99.90
44170;DHT22;29836;52.286;9.576;2023-08-24T00:23:16;15.70;99.90
44170;DHT22;29836;52.286;9.576;2023-08-24T00:25:42;15.60;99.90
44170;DHT22;29836;52.286;9.576;2023-08-24T00:28:07;15.50;99.90
44170;DHT22;29836;52.286;9.576;2023-08-24T00:30:33;15.50;99.90
44170;DHT22;29836;52.286;9.576;2023-08-24T00:32:59;15.40;99.90
44170;DHT22;29836;52.286;9.576;2023-08-24T00:35:24;15.30;99.90
44170;DHT22;29836;52.286;9.576;2023-08-24T00:37:50;15.30;99.90
44170;DHT22;29836;52.286;9.576;2023-08-24T00:40:16;15.30;99.90
44170;DHT22;29836;52.286;9.576;2023-08-24T00:42:44;15.30;99.90
44170;DHT22;29836;52.286;9.576;2023-08-24T00:45:12;15.20;99.90
44170;DHT22;29836;52.286;9.576;2023-08-24T00:47:44;15.20;99.90
44170;DHT22;29836;52.286;9.576;2023-08-24T00:50:10;15.20;99.90
44170;DHT22;29836;52.286;9.576;2023-08-24T00:52:38;15.20;99.90
44170;DHT22;29836;52.286;9.576;2023-08-24T00:55:06;15.20;99.90
44170;DHT22;29836;52.286;9.576;2023-08-24T00:57:32;15.30;99.90
44170;DHT22;29836;52.286;9.576;2023-08-24T00:59:59;15.30;99.90
44170;DHT22;29836;52.286;9.576;2023-08-24T01:02:25;15.40;99.90
44170;DHT22;29836;52.286;9.576;2023-08-24T01:04:51;15.40;99.90
44170;DHT22;29836;52.286;9.576;2023-08-24T01:07:17;15.30;99.90
44170;DHT22;29836;52.286;9.576;2023-08-24T01:09:43;15.40;99.90
44170;DHT22;29836;52.286;9.576;2023-08-24T01:12:29;15.30;99.90
44170;DHT22;29836;52.286;9.576;2023-08-24T01:15:12;15.30;99.90
44170;DHT22;29836;52.286;9.576;2023-08-24T01:17:39;15.30;99.90
44170;DHT22;29836;52.286;9.576;2023-08-24T01:20:07;15.30;99.90
44170;DHT22;29836;52.286;9.576;2023-08-24T01:22:51;15.30;99.90
44170;DHT22;29836;52.286;9.576;2023-08-24T01:28:01;15.30;99.90
44170;DHT22;29836;52.286;9.576;2023-08-24T01:30:29;15.20;99.90
44170;DHT22;29836;52.286;9.576;2023-08-24T01:32:56;15.20;99.90
44170;DHT22;29836;52.286;9.576;2023-08-24T01:35:21;15.20;99.90
44170;DHT22;29836;52.286;9.576;2023-08-24T01:37:47;15.20;99.90
44170;DHT22;29836;52.286;9.576;2023-08-24T01:40:15;15.30;99.90
44170;DHT22;29836;52.286;9.576;2023-08-24T01:42:51;15.30;99.90
44170;DHT22;29836;52.286;9.576;2023-08-24T01:45:17;15.30;99.90
44170;DHT22;29836;52.286;9.576;2023-08-24T01:47:45;15.30;99.90
44170;DHT22;29836;52.286;9.576;2023-08-24T01:50:11;15.30;99.90
44170;DHT22;29836;52.286;9.576;2023-08-24T01:52:36;15.30;99.90
44170;DHT22;29836;52.286;9.576;2023-08-24T01:55:02;15.30;99.90
44170;DHT22;29836;52.286;9.576;2023-08-24T01:57:28;15.30;99.90
44170;DHT22;29836;52.286;9.576;2023-08-24T01:59:53;15.30;99.90
44170;DHT22;29836;52.286;9.576;2023-08-24T02:02:21;15.30;99.90
44170;DHT22;29836;52.286;9.576;2023-08-24T02:04:46;15.20;99.90
44170;DHT22;29836;52.286;9.576;2023-08-24T02:07:12;15.10;99.90
44170;DHT22;29836;52.286;9.576;2023-08-24T02:09:37;15.20;99.90
44170;DHT22;29836;52.286;9.576;2023-08-24T02:12:03;15.10;99.90
44170;DHT22;29836;52.286;9.576;2023-08-24T02:14:28;15.10;99.90
44170;DHT22;29836;52.286;9.576;2023-08-24T02:16:54;15.10;99.90
44170;DHT22;29836;52.286;9.576;2023-08-24T02:19:19;15.00;99.90
44170;DHT22;29836;52.286;9.576;2023-08-24T02:21:45;15.00;99.90
44170;DHT22;29836;52.286;9.576;2023-08-24T02:24:11;15.00;99.90
44170;DHT22;29836;52.286;9.576;2023-08-24T02:26:36;14.90;99.90
44170;DHT22;29836;52.286;9.576;2023-08-24T02:29:02;14.80;99.90
44170;DHT22;29836;52.286;9.576;2023-08-24T02:31:27;14.70;99.90
44170;DHT22;29836;52.286;9.576;2023-08-24T02:33:53;14.60;99.90
44170;DHT22;29836;52.286;9.576;2023-08-24T02:36:19;14.50;99.90
44170;DHT22;29836;52.286;9.576;2023-08-24T02:38:44;14.30;99.90
44170;DHT22;29836;52.286;9.576;2023-08-24T02:41:10;14.30;99.90
44170;DHT22;29836;52.286;9.576;2023-08-24T02:43:36;14.20;99.90
44170;DHT22;29836;52.286;9.576;2023-08-24T02:46:07;14.10;99.90
44170;DHT22;29836;52.286;9.576;2023-08-24T02:48:34;14.20;99.90
44170;DHT22;29836;52.286;9.576;2023-08-24T02:51:01;14.20;99.90
44170;DHT22;29836;52.286;9.576;2023-08-24T02:53:28;14.20;99.90
44170;DHT22;29836;52.286;9.576;2023-08-24T02:55:54;14.20;99.90
44170;DHT22;29836;52.286;9.576;2023-08-24T02:58:20;14.20;99.90
44170;DHT22;29836;52.286;9.576;2023-08-24T03:00:46;14.20;99.90
44170;DHT22;29836;52.286;9.576;2023-08-24T03:03:15;14.20;99.90
44170;DHT22;29836;52.286;9.576;2023-08-24T03:05:50;14.10;99.90
44170;DHT22;29836;52.286;9.576;2023-08-24T03:08:16;14.10;99.90
44170;DHT22;29836;52.286;9.576;2023-08-24T03:10:41;14.00;99.90
44170;DHT22;29836;52.286;9.576;2023-08-24T03:13:07;14.00;99.90
44170;DHT22;29836;52.286;9.576;2023-08-24T03:15:34;13.90;99.90
44170;DHT22;29836;52.286;9.576;2023-08-24T03:18:00;13.90;99.90
44170;DHT22;29836;52.286;9.576;2023-08-24T03:20:26;14.00;99.90
44170;DHT22;29836;52.286;9.576;2023-08-24T03:22:51;14.00;99.90
44170;DHT22;29836;52.286;9.576;2023-08-24T03:25:17;14.00;99.90
44170;DHT22;29836;52.286;9.576;2023-08-24T03:27:42;14.00;99.90
44170;DHT22;29836;52.286;9.576;2023-08-24T03:30:08;14.00;99.90
44170;DHT22;29836;52.286;9.576;2023-08-24T03:32:34;14.00;99.90
44170;DHT22;29836;52.286;9.576;2023-08-24T03:35:00;14.00;99.90
44170;DHT22;29836;52.286;9.576;2023-08-24T03:37:25;14.00;99.90
44170;DHT22;29836;52.286;9.576;2023-08-24T03:39:51;14.00;99.90
44170;DHT22;29836;52.286;9.576;2023-08-24T03:42:16;14.00;99.90
44170;DHT22;29836;52.286;9.576;2023-08-24T03:44:42;14.00;99.90
44170;DHT22;29836;52.286;9.576;2023-08-24T03:47:07;13.90;99.90
44170;DHT22;29836;52.286;9.576;2023-08-24T03:49:34;13.90;99.90
44170;DHT22;29836;52.286;9.576;2023-08-24T03:51:59;13.80;99.90
44170;DHT22;29836;52.286;9.576;2023-08-24T03:54:25;13.90;99.90
44170;DHT22;29836;52.286;9.576;2023-08-24T03:56:51;13.80;99.90
44170;DHT22;29836;52.286;9.576;2023-08-24T03:59:16;13.80;99.90
44170;DHT22;29836;52.286;9.576;2023-08-24T04:01:42;13.80;99.90
44170;DHT22;29836;52.286;9.576;2023-08-24T04:04:07;13.80;99.90
44170;DHT22;29836;52.286;9.576;2023-08-24T04:06:33;13.70;99.90
44170;DHT22;29836;52.286;9.576;2023-08-24T04:08:58;13.80;99.90
44170;DHT22;29836;52.286;9.576;2023-08-24T04:11:24;13.90;99.90
44170;DHT22;29836;52.286;9.576;2023-08-24T04:13:49;13.90;99.90
44170;DHT22;29836;52.286;9.576;2023-08-24T04:16:15;13.90;99.90
44170;DHT22;29836;52.286;9.576;2023-08-24T04:18:40;13.90;99.90
44170;DHT22;29836;52.286;9.576;2023-08-24T04:21:06;13.90;99.90
44170;DHT22;29836;52.286;9.576;2023-08-24T04:23:31;13.90;99.90
44170;DHT22;29836;52.286;9.576;2023-08-24T04:25:57;14.00;99.90
44170;DHT22;29836;52.286;9.576;2023-08-24T04:28:23;13.90;99.90
44170;DHT22;29836;52.286;9.576;2023-08-24T04:30:53;13.90;99.90
44170;DHT22;29836;52.286;9.576;2023-08-24T04:33:18;14.00;99.90
44170;DHT22;29836;52.286;9.576;2023-08-24T04:35:48;14.00;99.90
44170;DHT22;29836;52.286;9.576;2023-08-24T04:38:14;14.10;99.90
44170;DHT22;29836;52.286;9.576;2023-08-24T04:43:17;14.40;99.90
44170;DHT22;29836;52.286;9.576;2023-08-24T04:45:42;14.50;99.90
44170;DHT22;29836;52.286;9.576;2023-08-24T04:48:08;14.70;99.90
44170;DHT22;29836;52.286;9.576;2023-08-24T04:50:33;14.90;99.90
44170;DHT22;29836;52.286;9.576;2023-08-24T04:52:59;15.00;99.90
44170;DHT22;29836;52.286;9.576;2023-08-24T04:55:24;15.10;99.90
44170;DHT22;29836;52.286;9.576;2023-08-24T04:57:50;15.30;99.90
44170;DHT22;29836;52.286;9.576;2023-08-24T05:00:16;15.40;99.90
44170;DHT22;29836;52.286;9.576;2023-08-24T05:02:42;15.60;99.90
44170;DHT22;29836;52.286;9.576;2023-08-24T05:05:08;15.60;99.90
44170;DHT22;29836;52.286;9.576;2023-08-24T05:07:37;15.80;99.90
44170;DHT22;29836;52.286;9.576;2023-08-24T05:10:03;15.80;99.90
44170;DHT22;29836;52.286;9.576;2023-08-24T05:12:29;15.80;99.90
44170;DHT22;29836;52.286;9.576;2023-08-24T05:14:55;15.80;99.90
44170;DHT22;29836;52.286;9.576;2023-08-24T05:17:20;15.80;99.90
44170;DHT22;29836;52.286;9.576;2023-08-24T05:19:50;15.80;99.90
44170;DHT22;29836;52.286;9.576;2023-08-24T05:22:16;15.80;99.90
44170;DHT22;29836;52.286;9.576;2023-08-24T05:24:41;15.90;99.90
44170;DHT22;29836;52.286;9.576;2023-08-24T05:27:07;15.90;99.90
44170;DHT22;29836;52.286;9.576;2023-08-24T05:29:33;16.10;99.90
44170;DHT22;29836;52.286;9.576;2023-08-24T05:31:59;16.20;99.90
44170;DHT22;29836;52.286;9.576;2023-08-24T05:34:24;16.30;99.90
44170;DHT22;29836;52.286;9.576;2023-08-24T05:36:50;16.40;99.90
44170;DHT22;29836;52.286;9.576;2023-08-24T05:39:16;16.50;99.90
44170;DHT22;29836;52.286;9.576;2023-08-24T05:41:41;16.60;99.90
44170;DHT22;29836;52.286;9.576;2023-08-24T05:44:07;16.70;99.90
44170;DHT22;29836;52.286;9.576;2023-08-24T05:46:32;16.80;99.90
44170;DHT22;29836;52.286;9.576;2023-08-24T05:48:58;16.80;99.90
44170;DHT22;29836;52.286;9.576;2023-08-24T05:51:27;16.90;99.90
44170;DHT22;29836;52.286;9.576;2023-08-24T05:53:53;17.00;99.90
44170;DHT22;29836;52.286;9.576;2023-08-24T05:56:21;17.00;99.90
44170;DHT22;29836;52.286;9.576;2023-08-24T05:58:48;17.10;99.90
44170;DHT22;29836;52.286;9.576;2023-08-24T06:01:13;17.10;99.90
44170;DHT22;29836;52.286;9.576;2023-08-24T06:03:39;17.10;99.90
44170;DHT22;29836;52.286;9.576;2023-08-24T06:06:04;17.10;99.90
44170;DHT22;29836;52.286;9.576;2023-08-24T06:08:30;17.10;99.90
44170;DHT22;29836;52.286;9.576;2023-08-24T06:10:56;17.20;99.90
44170;DHT22;29836;52.286;9.576;2023-08-24T06:13:22;17.30;99.90
44170;DHT22;29836;52.286;9.576;2023-08-24T06:15:48;17.40;99.90
44170;DHT22;29836;52.286;9.576;2023-08-24T06:18:13;17.30;99.90
44170;DHT22;29836;52.286;9.576;2023-08-24T06:20:39;17.30;99.90
44170;DHT22;29836;52.286;9.576;2023-08-24T06:23:04;17.30;99.90
44170;DHT22;29836;52.286;9.576;2023-08-24T06:25:30;17.20;99.90
44170;DHT22;29836;52.286;9.576;2023-08-24T06:27:57;17.20;99.90
44170;DHT22;29836;52.286;9.576;2023-08-24T06:30:24;17.20;99.90
44170;DHT22;29836;52.286;9.576;2023-08-24T06:32:50;17.20;99.90
44170;DHT22;29836;52.286;9.576;2023-08-24T06:35:15;17.30;99.90
44170;DHT22;29836;52.286;9.576;2023-08-24T06:37:41;17.40;99.90
44170;DHT22;29836;52.286;9.576;2023-08-24T06:40:07;17.40;99.90
44170;DHT22;29836;52.286;9.576;2023-08-24T06:42:34;17.40;99.90
44170;DHT22;29836;52.286;9.576;2023-08-24T06:44:59;17.50;99.90
44170;DHT22;29836;52.286;9.576;2023-08-24T06:47:25;17.60;99.90
44170;DHT22;29836;52.286;9.576;2023-08-24T06:49:50;17.70;99.90
44170;DHT22;29836;52.286;9.576;2023-08-24T06:52:16;17.80;99.90
44170;DHT22;29836;52.286;9.576;2023-08-24T06:54:41;17.90;99.90
44170;DHT22;29836;52.286;9.576;2023-08-24T06:57:07;18.10;99.90
44170;DHT22;29836;52.286;9.576;2023-08-24T06:59:33;18.40;99.90
44170;DHT22;29836;52.286;9.576;2023-08-24T07:01:58;18.60;99.90
44170;DHT22;29836;52.286;9.576;2023-08-24T07:04:25;18.70;99.90
44170;DHT22;29836;52.286;9.576;2023-08-24T07:06:51;18.90;99.90
44170;DHT22;29836;52.286;9.576;2023-08-24T07:09:18;19.00;99.90
44170;DHT22;29836;52.286;9.576;2023-08-24T07:11:44;19.20;99.90
44170;DHT22;29836;52.286;9.576;2023-08-24T07:14:09;19.40;99.90
44170;DHT22;29836;52.286;9.576;2023-08-24T07:16:35;19.50;99.90
44170;DHT22;29836;52.286;9.576;2023-08-24T07:19:01;19.80;99.90
44170;DHT22;29836;52.286;9.576;2023-08-24T07:21:27;20.20;99.90
44170;DHT22;29836;52.286;9.576;2023-08-24T07:23:53;20.50;99.90
44170;DHT22;29836;52.286;9.576;2023-08-24T07:26:18;20.70;99.90
44170;DHT22;29836;52.286;9.576;2023-08-24T07:28:44;21.00;99.90
44170;DHT22;29836;52.286;9.576;2023-08-24T07:31:10;21.00;99.90
44170;DHT22;29836;52.286;9.576;2023-08-24T07:33:37;21.10;99.90
44170;DHT22;29836;52.286;9.576;2023-08-24T07:36:05;21.30;99.90
44170;DHT22;29836;52.286;9.576;2023-08-24T07:38:31;21.40;99.90
44170;DHT22;29836;52.286;9.576;2023-08-24T07:40:57;21.60;99.90
44170;DHT22;29836;52.286;9.576;2023-08-24T07:43:23;21.80;99.90
44170;DHT22;29836;52.286;9.576;2023-08-24T07:45:49;22.00;99.90
44170;DHT22;29836;52.286;9.576;2023-08-24T07:48:15;22.10;99.90
44170;DHT22;29836;52.286;9.576;2023-08-24T07:50:41;22.00;99.90
44170;DHT22;29836;52.286;9.576;2023-08-24T07:53:06;21.90;99.90
44170;DHT22;29836;52.286;9.576;2023-08-24T07:55:32;21.70;99.90
44170;DHT22;29836;52.286;9.576;2023-08-24T07:57:57;21.70;99.90
44170;DHT22;29836;52.286;9.576;2023-08-24T08:00:23;21.80;99.90
44170;DHT22;29836;52.286;9.576;2023-08-24T08:02:50;22.00;99.90
44170;DHT22;29836;52.286;9.576;2023-08-24T08:05:17;22.00;99.90
44170;DHT22;29836;52.286;9.576;2023-08-24T08:07:43;22.10;99.90
44170;DHT22;29836;52.286;9.576;2023-08-24T08:10:09;22.40;99.90
44170;DHT22;29836;52.286;9.576;2023-08-24T08:12:35;22.60;99.90
44170;DHT22;29836;52.286;9.576;2023-08-24T08:15:01;22.60;99.90
44170;DHT22;29836;52.286;9.576;2023-08-24T08:17:27;22.70;99.90
44170;DHT22;29836;52.286;9.576;2023-08-24T08:19:59;22.90;99.90
44170;DHT22;29836;52.286;9.576;2023-08-24T08:22:24;23.20;99.90
44170;DHT22;29836;52.286;9.576;2023-08-24T08:24:53;23.20;99.90
44170;DHT22;29836;52.286;9.576;2023-08-24T08:27:22;23.30;99.90
44170;DHT22;29836;52.286;9.576;2023-08-24T08:29:50;23.30;99.90
44170;DHT22;29836;52.286;9.576;2023-08-24T08:32:15;23.50;99.90
44170;DHT22;29836;52.286;9.576;2023-08-24T08:34:41;23.70;99.90
44170;DHT22;29836;52.286;9.576;2023-08-24T08:37:06;23.80;99.90
44170;DHT22;29836;52.286;9.576;2023-08-24T08:39:32;23.90;99.90
44170;DHT22;29836;52.286;9.576;2023-08-24T08:41:58;24.10;99.90
44170;DHT22;29836;52.286;9.576;2023-08-24T08:44:25;24.30;99.90
44170;DHT22;29836;52.286;9.576;2023-08-24T08:46:56;24.40;99.90
44170;DHT22;29836;52.286;9.576;2023-08-24T08:49:22;24.70;99.90
44170;DHT22;29836;52.286;9.576;2023-08-24T08:51:48;25.20;99.90
44170;DHT22;29836;52.286;9.576;2023-08-24T08:54:14;25.10;99.90
44170;DHT22;29836;52.286;9.576;2023-08-24T08:56:39;25.50;99.90
44170;DHT22;29836;52.286;9.576;2023-08-24T08:59:07;26.90;99.90
44170;DHT22;29836;52.286;9.576;2023-08-24T09:01:33;29.20;95.30
44170;DHT22;29836;52.286;9.576;2023-08-24T09:03:59;31.80;87.00
44170;DHT22;29836;52.286;9.576;2023-08-24T09:06:25;34.00;75.60
44170;DHT22;29836;52.286;9.576;2023-08-24T09:08:52;35.70;68.80
44170;DHT22;29836;52.286;9.576;2023-08-24T09:11:17;36.80;63.30
44170;DHT22;29836;52.286;9.576;2023-08-24T09:13:44;38.00;60.00
44170;DHT22;29836;52.286;9.576;2023-08-24T09:16:10;39.10;57.20
44170;DHT22;29836;52.286;9.576;2023-08-24T09:18:43;39.80;56.50
44170;DHT22;29836;52.286;9.576;2023-08-24T09:21:11;40.50;56.40
44170;DHT22;29836;52.286;9.576;2023-08-24T09:23:38;40.20;55.90
44170;DHT22;29836;52.286;9.576;2023-08-24T09:26:08;40.00;55.20
44170;DHT22;29836;52.286;9.576;2023-08-24T09:28:33;40.80;54.20
44170;DHT22;29836;52.286;9.576;2023-08-24T09:31:00;41.50;52.50
44170;DHT22;29836;52.286;9.576;2023-08-24T09:33:27;41.10;54.00
44170;DHT22;29836;52.286;9.576;2023-08-24T09:35:55;40.60;53.10
44170;DHT22;29836;52.286;9.576;2023-08-24T09:38:27;41.30;49.80
44170;DHT22;29836;52.286;9.576;2023-08-24T09:40:54;42.10;50.20
44170;DHT22;29836;52.286;9.576;2023-08-24T09:43:20;41.60;51.50
44170;DHT22;29836;52.286;9.576;2023-08-24T09:45:52;41.10;51.40
44170;DHT22;29836;52.286;9.576;2023-08-24T09:48:18;41.10;51.40
44170;DHT22;29836;52.286;9.576;2023-08-24T09:50:45;40.60;50.90
44170;DHT22;29836;52.286;9.576;2023-08-24T09:53:19;40.50;50.50
44170;DHT22;29836;52.286;9.576;2023-08-24T09:56:01;40.60;50.00
44170;DHT22;29836;52.286;9.576;2023-08-24T09:58:28;40.10;52.90
44170;DHT22;29836;52.286;9.576;2023-08-24T10:00:54;40.90;50.70
44170;DHT22;29836;52.286;9.576;2023-08-24T10:03:25;40.80;51.60
44170;DHT22;29836;52.286;9.576;2023-08-24T10:05:55;41.00;50.20
44170;DHT22;29836;52.286;9.576;2023-08-24T10:08:29;40.50;52.40
44170;DHT22;29836;52.286;9.576;2023-08-24T10:10:58;39.60;53.20
44170;DHT22;29836;52.286;9.576;2023-08-24T10:13:32;39.80;50.70
44170;DHT22;29836;52.286;9.576;2023-08-24T10:16:03;39.90;52.00
44170;DHT22;29836;52.286;9.576;2023-08-24T10:18:30;39.80;53.50
44170;DHT22;29836;52.286;9.576;2023-08-24T10:20:56;38.70;54.20
44170;DHT22;29836;52.286;9.576;2023-08-24T10:23:23;38.50;54.50
44170;DHT22;29836;52.286;9.576;2023-08-24T10:25:51;38.20;54.80
44170;DHT22;29836;52.286;9.576;2023-08-24T10:28:18;38.50;54.30
44170;DHT22;29836;52.286;9.576;2023-08-24T10:30:46;38.30;56.00
44170;DHT22;29836;52.286;9.576;2023-08-24T10:33:13;38.90;54.80
44170;DHT22;29836;52.286;9.576;2023-08-24T10:35:40;39.00;55.10
44170;DHT22;29836;52.286;9.576;2023-08-24T10:38:06;38.10;55.70
44170;DHT22;29836;52.286;9.576;2023-08-24T10:40:37;36.90;56.20
44170;DHT22;29836;52.286;9.576;2023-08-24T10:43:05;36.90;57.10
44170;DHT22;29836;52.286;9.576;2023-08-24T10:45:57;35.90;57.00
44170;DHT22;29836;52.286;9.576;2023-08-24T10:48:24;35.60;58.10
44170;DHT22;29836;52.286;9.576;2023-08-24T10:53:56;35.50;60.70
44170;DHT22;29836;52.286;9.576;2023-08-24T10:56:38;35.70;58.40
44170;DHT22;29836;52.286;9.576;2023-08-24T10:59:12;35.60;56.70
44170;DHT22;29836;52.286;9.576;2023-08-24T11:01:39;35.60;58.30
44170;DHT22;29836;52.286;9.576;2023-08-24T11:04:06;36.10;56.40
44170;DHT22;29836;52.286;9.576;2023-08-24T11:06:34;36.10;58.60
44170;DHT22;29836;52.286;9.576;2023-08-24T11:09:08;36.50;56.60
44170;DHT22;29836;52.286;9.576;2023-08-24T11:11:40;36.00;54.80
44170;DHT22;29836;52.286;9.576;2023-08-24T11:14:19;35.80;56.10
44170;DHT22;29836;52.286;9.576;2023-08-24T11:16:49;36.60;52.90
44170;DHT22;29836;52.286;9.576;2023-08-24T11:19:15;35.50;58.10
44170;DHT22;29836;52.286;9.576;2023-08-24T11:21:45;36.10;55.80
44170;DHT22;29836;52.286;9.576;2023-08-24T11:24:15;37.10;54.20
44170;DHT22;29836;52.286;9.576;2023-08-24T11:26:45;37.30;54.90
44170;DHT22;29836;52.286;9.576;2023-08-24T11:29:11;37.00;55.10
44170;DHT22;29836;52.286;9.576;2023-08-24T11:31:37;35.40;56.20
44170;DHT22;29836;52.286;9.576;2023-08-24T11:34:04;34.30;58.20
44170;DHT22;29836;52.286;9.576;2023-08-24T11:36:42;33.30;61.70
44170;DHT22;29836;52.286;9.576;2023-08-24T11:39:18;32.70;57.40
44170;DHT22;29836;52.286;9.576;2023-08-24T11:42:06;32.10;61.20
44170;DHT22;29836;52.286;9.576;2023-08-24T11:44:47;31.50;63.60
44170;DHT22;29836;52.286;9.576;2023-08-24T11:47:13;30.70;66.50
44170;DHT22;29836;52.286;9.576;2023-08-24T11:49:38;30.30;62.80
44170;DHT22;29836;52.286;9.576;2023-08-24T11:52:04;29.80;67.70
44170;DHT22;29836;52.286;9.576;2023-08-24T11:54:32;29.60;66.10
44170;DHT22;29836;52.286;9.576;2023-08-24T11:56:58;29.50;66.90
44170;DHT22;29836;52.286;9.576;2023-08-24T11:59:24;29.00;67.50
44170;DHT22;29836;52.286;9.576;2023-08-24T12:01:51;28.80;67.60
44170;DHT22;29836;52.286;9.576;2023-08-24T12:04:18;28.70;72.10
44170;DHT22;29836;52.286;9.576;2023-08-24T12:06:44;28.90;64.80
44170;DHT22;29836;52.286;9.576;2023-08-24T12:09:09;29.10;61.00
44170;DHT22;29836;52.286;9.576;2023-08-24T12:11:36;28.70;69.90
44170;DHT22;29836;52.286;9.576;2023-08-24T12:14:02;28.60;66.80
44170;DHT22;29836;52.286;9.576;2023-08-24T12:16:31;28.80;65.00
44170;DHT22;29836;52.286;9.576;2023-08-24T12:18:59;29.20;63.50
44170;DHT22;29836;52.286;9.576;2023-08-24T12:21:26;29.30;62.60
44170;DHT22;29836;52.286;9.576;2023-08-24T12:24:05;29.30;63.90
44170;DHT22;29836;52.286;9.576;2023-08-24T12:26:34;29.30;63.00
44170;DHT22;29836;52.286;9.576;2023-08-24T12:29:08;29.30;63.20
44170;DHT22;29836;52.286;9.576;2023-08-24T12:31:35;29.20;62.00
44170;DHT22;29836;52.286;9.576;2023-08-24T12:34:08;29.20;63.90
44170;DHT22;29836;52.286;9.576;2023-08-24T12:36:38;29.30;61.70
44170;DHT22;29836;52.286;9.576;2023-08-24T12:39:04;29.30;60.80
44170;DHT22;29836;52.286;9.576;2023-08-24T12:41:31;28.90;64.90
44170;DHT22;29836;52.286;9.576;2023-08-24T12:43:56;29.20;63.60
44170;DHT22;29836;52.286;9.576;2023-08-24T12:46:22;29.50;61.30
44170;DHT22;29836;52.286;9.576;2023-08-24T12:48:49;29.60;65.70
44170;DHT22;29836;52.286;9.576;2023-08-24T12:51:15;29.90;67.30
44170;DHT22;29836;52.286;9.576;2023-08-24T12:53:41;30.10;63.30
44170;DHT22;29836;52.286;9.576;2023-08-24T12:56:07;29.90;63.30
44170;DHT22;29836;52.286;9.576;2023-08-24T12:58:33;30.20;62.70
44170;DHT22;29836;52.286;9.576;2023-08-24T13:00:59;30.50;61.70
44170;DHT22;29836;52.286;9.576;2023-08-24T13:03:25;30.50;60.90
44170;DHT22;29836;52.286;9.576;2023-08-24T13:05:50;30.30;60.20
44170;DHT22;29836;52.286;9.576;2023-08-24T13:08:16;30.50;61.00
44170;DHT22;29836;52.286;9.576;2023-08-24T13:10:41;30.90;59.40
44170;DHT22;29836;52.286;9.576;2023-08-24T13:13:07;31.00;59.20
44170;DHT22;29836;52.286;9.576;2023-08-24T13:15:33;30.90;59.90
44170;DHT22;29836;52.286;9.576;2023-08-24T13:17:59;30.50;61.00
44170;DHT22;29836;52.286;9.576;2023-08-24T13:20:25;30.00;62.40
44170;DHT22;29836;52.286;9.576;2023-08-24T13:22:53;29.90;65.40
44170;DHT22;29836;52.286;9.576;2023-08-24T13:25:19;29.60;62.70
44170;DHT22;29836;52.286;9.576;2023-08-24T13:27:44;29.60;64.50
44170;DHT22;29836;52.286;9.576;2023-08-24T13:30:10;29.40;64.50
44170;DHT22;29836;52.286;9.576;2023-08-24T13:32:36;29.40;64.80
44170;DHT22;29836;52.286;9.576;2023-08-24T13:35:02;29.30;64.20
44170;DHT22;29836;52.286;9.576;2023-08-24T13:37:28;29.30;64.60
44170;DHT22;29836;52.286;9.576;2023-08-24T13:39:54;29.20;64.00
44170;DHT22;29836;52.286;9.576;2023-08-24T13:42:19;29.10;67.40
44170;DHT22;29836;52.286;9.576;2023-08-24T13:44:45;29.00;65.80
44170;DHT22;29836;52.286;9.576;2023-08-24T13:47:11;28.90;64.60
44170;DHT22;29836;52.286;9.576;2023-08-24T13:49:37;28.90;64.00
44170;DHT22;29836;52.286;9.576;2023-08-24T13:52:03;28.80;65.10
44170;DHT22;29836;52.286;9.576;2023-08-24T13:54:28;28.80;64.20
44170;DHT22;29836;52.286;9.576;2023-08-24T13:56:55;28.80;65.60
44170;DHT22;29836;52.286;9.576;2023-08-24T13:59:21;28.80;67.30
44170;DHT22;29836;52.286;9.576;2023-08-24T14:01:47;29.00;64.90
44170;DHT22;29836;52.286;9.576;2023-08-24T14:04:13;29.10;66.10
44170;DHT22;29836;52.286;9.576;2023-08-24T14:06:38;29.00;67.00
44170;DHT22;29836;52.286;9.576;2023-08-24T14:09:04;29.10;66.20
44170;DHT22;29836;52.286;9.576;2023-08-24T14:11:30;29.00;67.10
44170;DHT22;29836;52.286;9.576;2023-08-24T14:13:56;28.90;66.90
44170;DHT22;29836;52.286;9.576;2023-08-24T14:16:22;28.90;68.20
44170;DHT22;29836;52.286;9.576;2023-08-24T14:18:48;28.90;67.00
44170;DHT22;29836;52.286;9.576;2023-08-24T14:23:46;29.00;67.80
44170;DHT22;29836;52.286;9.576;2023-08-24T14:26:12;29.00;67.60
44170;DHT22;29836;52.286;9.576;2023-08-24T14:28:48;29.10;67.10
44170;DHT22;29836;52.286;9.576;2023-08-24T14:31:21;29.20;66.90
44170;DHT22;29836;52.286;9.576;2023-08-24T14:33:47;29.20;66.70
44170;DHT22;29836;52.286;9.576;2023-08-24T14:36:13;29.10;68.60
44170;DHT22;29836;52.286;9.576;2023-08-24T14:38:39;29.30;66.90
44170;DHT22;29836;52.286;9.576;2023-08-24T14:41:12;29.40;69.20
44170;DHT22;29836;52.286;9.576;2023-08-24T14:43:41;29.50;67.20
44170;DHT22;29836;52.286;9.576;2023-08-24T14:46:07;29.60;66.40
44170;DHT22;29836;52.286;9.576;2023-08-24T14:48:33;29.40;66.40
44170;DHT22;29836;52.286;9.576;2023-08-24T14:50:58;29.30;67.20
44170;DHT22;29836;52.286;9.576;2023-08-24T14:53:25;29.30;68.60
44170;DHT22;29836;52.286;9.576;2023-08-24T14:55:52;29.20;67.50
44170;DHT22;29836;52.286;9.576;2023-08-24T14:58:17;29.10;69.50
44170;DHT22;29836;52.286;9.576;2023-08-24T15:00:43;29.10;69.10
44170;DHT22;29836;52.286;9.576;2023-08-24T15:03:11;29.00;69.00
44170;DHT22;29836;52.286;9.576;2023-08-24T15:05:41;29.10;69.20
44170;DHT22;29836;52.286;9.576;2023-08-24T15:08:07;29.00;69.80
44170;DHT22;29836;52.286;9.576;2023-08-24T15:10:32;28.90;70.70
44170;DHT22;29836;52.286;9.576;2023-08-24T15:12:58;28.90;71.00
44170;DHT22;29836;52.286;9.576;2023-08-24T15:15:23;29.00;71.50
44170;DHT22;29836;52.286;9.576;2023-08-24T15:17:49;29.20;72.00
44170;DHT22;29836;52.286;9.576;2023-08-24T15:20:14;29.40;72.30
44170;DHT22;29836;52.286;9.576;2023-08-24T15:22:41;29.70;73.90
44170;DHT22;29836;52.286;9.576;2023-08-24T15:25:07;29.80;70.80
44170;DHT22;29836;52.286;9.576;2023-08-24T15:27:33;29.60;70.70
44170;DHT22;29836;52.286;9.576;2023-08-24T15:29:58;29.40;71.40
44170;DHT22;29836;52.286;9.576;2023-08-24T15:32:26;29.20;71.90
44170;DHT22;29836;52.286;9.576;2023-08-24T15:34:52;28.90;71.90
44170;DHT22;29836;52.286;9.576;2023-08-24T15:37:19;28.60;74.10
44170;DHT22;29836;52.286;9.576;2023-08-24T15:39:45;28.50;74.00